sensor_id;sensor_type;location;lat;lon;timestamp;P1;durP1;ratioP1;P2;durP2;ratioP2
26151;SDS011;13907;53.154;8.202;2022-12-29T00:00:09;4.83;;;2.60;;
26151;SDS011;13907;53.154;8.202;2022-12-29T00:02:37;3.23;;;2.30;;
26151;SDS011;13907;53.154;8.202;2022-12-29T00:05:04;3.30;;;1.93;;
26151;SDS011;13907;53.154;8.202;2022-12-29T00:07:33;1.80;;;1.70;;
26151;SDS011;13907;53.154;8.202;2022-12-29T00:10:00;1.97;;;1.53;;
26151;SDS011;13907;53.154;8.202;2022-12-29T00:12:27;2.63;;;1.60;;
26151;SDS011;13907;53.154;8.202;2022-12-29T00:15:14;2.53;;;1.33;;
26151;SDS011;13907;53.154;8.202;2022-12-29T00:17:59;1.83;;;1.53;;
26151;SDS011;13907;53.154;8.202;2022-12-29T00:20:26;2.93;;;2.27;;
26151;SDS011;13907;53.154;8.202;2022-12-29T00:23:12;1.83;;;1.60;;
26151;SDS011;13907;53.154;8.202;2022-12-29T00:25:57;1.73;;;1.63;;
26151;SDS011;13907;53.154;8.202;2022-12-29T00:28:42;1.93;;;1.70;;
26151;SDS011;13907;53.154;8.202;2022-12-29T00:31:26;1.10;;;1.10;;
26151;SDS011;13907;53.154;8.202;2022-12-29T00:34:11;1.47;;;1.37;;
26151;SDS011;13907;53.154;8.202;2022-12-29T00:36:55;1.50;;;1.40;;
26151;SDS011;13907;53.154;8.202;2022-12-29T00:39:24;1.67;;;1.40;;
26151;SDS011;13907;53.154;8.202;2022-12-29T00:42:09;2.23;;;1.87;;
26151;SDS011;13907;53.154;8.202;2022-12-29T00:44:59;1.10;;;1.10;;
26151;SDS011;13907;53.154;8.202;2022-12-29T00:47:26;1.47;;;1.37;;
26151;SDS011;13907;53.154;8.202;2022-12-29T00:49:53;1.70;;;1.60;;
26151;SDS011;13907;53.154;8.202;2022-12-29T00:52:19;1.53;;;1.43;;
26151;SDS011;13907;53.154;8.202;2022-12-29T00:54:48;1.67;;;1.57;;
26151;SDS011;13907;53.154;8.202;2022-12-29T00:57:15;2.00;;;1.90;;
26151;SDS011;13907;53.154;8.202;2022-12-29T00:59:42;1.80;;;1.70;;
26151;SDS011;13907;53.154;8.202;2022-12-29T01:02:10;1.53;;;1.43;;
26151;SDS011;13907;53.154;8.202;2022-12-29T01:04:37;1.50;;;1.40;;
26151;SDS011;13907;53.154;8.202;2022-12-29T01:07:04;1.67;;;1.57;;
26151;SDS011;13907;53.154;8.202;2022-12-29T01:09:31;1.70;;;1.60;;
26151;SDS011;13907;53.154;8.202;2022-12-29T01:12:18;1.77;;;1.67;;
26151;SDS011;13907;53.154;8.202;2022-12-29T01:15:05;2.00;;;1.80;;
26151;SDS011;13907;53.154;8.202;2022-12-29T01:17:32;2.27;;;2.07;;
26151;SDS011;13907;53.154;8.202;2022-12-29T01:19:59;2.10;;;2.00;;
26151;SDS011;13907;53.154;8.202;2022-12-29T01:22:27;1.83;;;1.70;;
26151;SDS011;13907;53.154;8.202;2022-12-29T01:24:54;1.03;;;1.03;;
26151;SDS011;13907;53.154;8.202;2022-12-29T01:27:22;1.23;;;1.03;;
26151;SDS011;13907;53.154;8.202;2022-12-29T01:29:49;1.63;;;1.53;;
26151;SDS011;13907;53.154;8.202;2022-12-29T01:32:17;0.90;;;0.90;;
26151;SDS011;13907;53.154;8.202;2022-12-29T01:34:44;1.80;;;1.70;;
26151;SDS011;13907;53.154;8.202;2022-12-29T01:37:11;1.60;;;1.50;;
26151;SDS011;13907;53.154;8.202;2022-12-29T01:39:38;1.67;;;1.57;;
26151;SDS011;13907;53.154;8.202;2022-12-29T01:42:05;3.37;;;1.20;;
26151;SDS011;13907;53.154;8.202;2022-12-29T01:44:50;2.13;;;1.57;;
26151;SDS011;13907;53.154;8.202;2022-12-29T01:47:20;2.03;;;1.50;;
26151;SDS011;13907;53.154;8.202;2022-12-29T01:49:48;1.27;;;1.17;;
26151;SDS011;13907;53.154;8.202;2022-12-29T01:52:15;1.33;;;1.23;;
26151;SDS011;13907;53.154;8.202;2022-12-29T01:54:42;2.07;;;1.30;;
26151;SDS011;13907;53.154;8.202;2022-12-29T01:57:11;1.23;;;1.13;;
26151;SDS011;13907;53.154;8.202;2022-12-29T01:59:39;1.73;;;1.50;;
26151;SDS011;13907;53.154;8.202;2022-12-29T02:02:09;1.73;;;1.40;;
26151;SDS011;13907;53.154;8.202;2022-12-29T02:04:37;1.33;;;1.23;;
26151;SDS011;13907;53.154;8.202;2022-12-29T02:07:10;0.83;;;0.83;;
26151;SDS011;13907;53.154;8.202;2022-12-29T02:09:38;1.43;;;1.33;;
26151;SDS011;13907;53.154;8.202;2022-12-29T02:12:05;4.10;;;1.00;;
26151;SDS011;13907;53.154;8.202;2022-12-29T02:14:32;1.00;;;1.00;;
26151;SDS011;13907;53.154;8.202;2022-12-29T02:17:01;1.30;;;1.20;;
26151;SDS011;13907;53.154;8.202;2022-12-29T02:19:42;1.17;;;1.07;;
26151;SDS011;13907;53.154;8.202;2022-12-29T02:22:16;0.90;;;0.90;;
26151;SDS011;13907;53.154;8.202;2022-12-29T02:27:34;1.57;;;1.47;;
26151;SDS011;13907;53.154;8.202;2022-12-29T02:30:03;3.03;;;0.90;;
26151;SDS011;13907;53.154;8.202;2022-12-29T02:32:35;0.93;;;0.93;;
26151;SDS011;13907;53.154;8.202;2022-12-29T02:35:05;1.40;;;1.30;;
26151;SDS011;13907;53.154;8.202;2022-12-29T02:37:35;0.83;;;0.83;;
26151;SDS011;13907;53.154;8.202;2022-12-29T02:40:15;1.47;;;0.90;;
26151;SDS011;13907;53.154;8.202;2022-12-29T02:42:46;1.10;;;1.00;;
26151;SDS011;13907;53.154;8.202;2022-12-29T02:45:15;1.10;;;0.90;;
26151;SDS011;13907;53.154;8.202;2022-12-29T02:47:46;1.30;;;1.20;;
26151;SDS011;13907;53.154;8.202;2022-12-29T02:50:17;1.17;;;0.90;;
26151;SDS011;13907;53.154;8.202;2022-12-29T02:52:46;1.20;;;1.10;;
26151;SDS011;13907;53.154;8.202;2022-12-29T02:55:15;0.80;;;0.80;;
26151;SDS011;13907;53.154;8.202;2022-12-29T02:57:41;2.20;;;1.30;;
26151;SDS011;13907;53.154;8.202;2022-12-29T03:00:09;0.87;;;0.87;;
26151;SDS011;13907;53.154;8.202;2022-12-29T03:02:51;0.93;;;0.93;;
26151;SDS011;13907;53.154;8.202;2022-12-29T03:05:25;1.07;;;1.07;;
26151;SDS011;13907;53.154;8.202;2022-12-29T03:07:59;1.03;;;1.03;;
26151;SDS011;13907;53.154;8.202;2022-12-29T03:10:35;0.70;;;0.70;;
26151;SDS011;13907;53.154;8.202;2022-12-29T03:13:07;1.77;;;1.07;;
26151;SDS011;13907;53.154;8.202;2022-12-29T03:15:55;1.57;;;1.47;;
26151;SDS011;13907;53.154;8.202;2022-12-29T03:18:28;1.17;;;1.17;;
26151;SDS011;13907;53.154;8.202;2022-12-29T03:20:58;1.60;;;1.50;;
26151;SDS011;13907;53.154;8.202;2022-12-29T03:23:27;1.20;;;1.10;;
26151;SDS011;13907;53.154;8.202;2022-12-29T03:25:56;0.90;;;0.90;;
26151;SDS011;13907;53.154;8.202;2022-12-29T03:28:24;3.90;;;1.40;;
26151;SDS011;13907;53.154;8.202;2022-12-29T03:30:52;0.80;;;0.80;;
26151;SDS011;13907;53.154;8.202;2022-12-29T03:33:20;1.27;;;1.10;;
26151;SDS011;13907;53.154;8.202;2022-12-29T03:35:50;1.20;;;1.10;;
26151;SDS011;13907;53.154;8.202;2022-12-29T03:38:18;1.67;;;1.37;;
26151;SDS011;13907;53.154;8.202;2022-12-29T03:40:48;1.07;;;0.97;;
26151;SDS011;13907;53.154;8.202;2022-12-29T03:43:16;1.07;;;0.80;;
26151;SDS011;13907;53.154;8.202;2022-12-29T03:45:44;1.60;;;1.10;;
26151;SDS011;13907;53.154;8.202;2022-12-29T03:48:11;1.83;;;1.10;;
26151;SDS011;13907;53.154;8.202;2022-12-29T03:50:38;1.10;;;1.00;;
26151;SDS011;13907;53.154;8.202;2022-12-29T03:53:06;3.10;;;0.97;;
26151;SDS011;13907;53.154;8.202;2022-12-29T03:55:33;1.03;;;1.00;;
26151;SDS011;13907;53.154;8.202;2022-12-29T03:58:00;0.77;;;0.77;;
26151;SDS011;13907;53.154;8.202;2022-12-29T04:00:27;1.23;;;1.00;;
26151;SDS011;13907;53.154;8.202;2022-12-29T04:02:55;0.87;;;0.87;;
26151;SDS011;13907;53.154;8.202;2022-12-29T04:05:22;0.63;;;0.63;;
26151;SDS011;13907;53.154;8.202;2022-12-29T04:07:49;1.27;;;1.17;;
26151;SDS011;13907;53.154;8.202;2022-12-29T04:10:17;0.63;;;0.63;;
26151;SDS011;13907;53.154;8.202;2022-12-29T04:12:44;0.70;;;0.70;;
26151;SDS011;13907;53.154;8.202;2022-12-29T04:15:11;0.93;;;0.93;;
26151;SDS011;13907;53.154;8.202;2022-12-29T04:17:39;0.93;;;0.93;;
26151;SDS011;13907;53.154;8.202;2022-12-29T04:20:06;2.30;;;0.90;;
26151;SDS011;13907;53.154;8.202;2022-12-29T04:22:56;1.13;;;1.00;;
26151;SDS011;13907;53.154;8.202;2022-12-29T04:25:25;0.80;;;0.80;;
26151;SDS011;13907;53.154;8.202;2022-12-29T04:27:52;0.87;;;0.87;;
26151;SDS011;13907;53.154;8.202;2022-12-29T04:30:19;0.90;;;0.83;;
26151;SDS011;13907;53.154;8.202;2022-12-29T04:32:46;0.70;;;0.70;;
26151;SDS011;13907;53.154;8.202;2022-12-29T04:35:13;0.50;;;0.50;;
26151;SDS011;13907;53.154;8.202;2022-12-29T04:37:40;0.60;;;0.60;;
26151;SDS011;13907;53.154;8.202;2022-12-29T04:40:08;0.60;;;0.60;;
26151;SDS011;13907;53.154;8.202;2022-12-29T04:42:37;0.70;;;0.70;;
26151;SDS011;13907;53.154;8.202;2022-12-29T04:45:04;0.70;;;0.70;;
26151;SDS011;13907;53.154;8.202;2022-12-29T04:47:31;0.70;;;0.70;;
26151;SDS011;13907;53.154;8.202;2022-12-29T04:49:58;0.50;;;0.50;;
26151;SDS011;13907;53.154;8.202;2022-12-29T04:52:25;0.50;;;0.50;;
26151;SDS011;13907;53.154;8.202;2022-12-29T04:54:53;0.60;;;0.60;;
26151;SDS011;13907;53.154;8.202;2022-12-29T04:57:20;0.60;;;0.60;;
26151;SDS011;13907;53.154;8.202;2022-12-29T04:59:48;0.70;;;0.70;;
26151;SDS011;13907;53.154;8.202;2022-12-29T05:02:15;0.50;;;0.50;;
26151;SDS011;13907;53.154;8.202;2022-12-29T05:04:42;1.63;;;0.50;;
26151;SDS011;13907;53.154;8.202;2022-12-29T05:07:09;0.83;;;0.83;;
26151;SDS011;13907;53.154;8.202;2022-12-29T05:09:36;0.80;;;0.80;;
26151;SDS011;13907;53.154;8.202;2022-12-29T05:12:04;0.60;;;0.60;;
26151;SDS011;13907;53.154;8.202;2022-12-29T05:14:31;0.50;;;0.50;;
26151;SDS011;13907;53.154;8.202;2022-12-29T05:16:59;0.50;;;0.50;;
26151;SDS011;13907;53.154;8.202;2022-12-29T05:19:26;0.43;;;0.43;;
26151;SDS011;13907;53.154;8.202;2022-12-29T05:21:53;1.13;;;0.70;;
26151;SDS011;13907;53.154;8.202;2022-12-29T05:24:21;0.40;;;0.40;;
26151;SDS011;13907;53.154;8.202;2022-12-29T05:26:48;0.90;;;0.90;;
26151;SDS011;13907;53.154;8.202;2022-12-29T05:29:15;0.40;;;0.40;;
26151;SDS011;13907;53.154;8.202;2022-12-29T05:31:42;0.60;;;0.60;;
26151;SDS011;13907;53.154;8.202;2022-12-29T05:34:11;0.60;;;0.60;;
26151;SDS011;13907;53.154;8.202;2022-12-29T05:36:38;0.70;;;0.70;;
26151;SDS011;13907;53.154;8.202;2022-12-29T05:39:05;0.60;;;0.60;;
26151;SDS011;13907;53.154;8.202;2022-12-29T05:41:33;0.40;;;0.40;;
26151;SDS011;13907;53.154;8.202;2022-12-29T05:44:00;0.30;;;0.30;;
26151;SDS011;13907;53.154;8.202;2022-12-29T05:46:27;0.40;;;0.40;;
26151;SDS011;13907;53.154;8.202;2022-12-29T05:48:54;0.43;;;0.43;;
26151;SDS011;13907;53.154;8.202;2022-12-29T05:51:23;1.30;;;0.70;;
26151;SDS011;13907;53.154;8.202;2022-12-29T05:53:50;0.53;;;0.40;;
26151;SDS011;13907;53.154;8.202;2022-12-29T05:56:17;0.50;;;0.50;;
26151;SDS011;13907;53.154;8.202;2022-12-29T05:58:44;4.17;;;0.80;;
26151;SDS011;13907;53.154;8.202;2022-12-29T06:01:11;0.60;;;0.60;;
26151;SDS011;13907;53.154;8.202;2022-12-29T06:03:38;0.70;;;0.70;;
26151;SDS011;13907;53.154;8.202;2022-12-29T06:06:05;0.50;;;0.50;;
26151;SDS011;13907;53.154;8.202;2022-12-29T06:08:34;0.30;;;0.30;;
26151;SDS011;13907;53.154;8.202;2022-12-29T06:11:01;0.50;;;0.50;;
26151;SDS011;13907;53.154;8.202;2022-12-29T06:13:28;0.30;;;0.30;;
26151;SDS011;13907;53.154;8.202;2022-12-29T06:15:55;0.47;;;0.47;;
26151;SDS011;13907;53.154;8.202;2022-12-29T06:18:22;0.40;;;0.40;;
26151;SDS011;13907;53.154;8.202;2022-12-29T06:20:49;0.47;;;0.47;;
26151;SDS011;13907;53.154;8.202;2022-12-29T06:23:17;0.50;;;0.50;;
26151;SDS011;13907;53.154;8.202;2022-12-29T06:25:45;3.13;;;0.83;;
26151;SDS011;13907;53.154;8.202;2022-12-29T06:28:13;0.47;;;0.47;;
26151;SDS011;13907;53.154;8.202;2022-12-29T06:30:42;0.53;;;0.53;;
26151;SDS011;13907;53.154;8.202;2022-12-29T06:33:10;0.40;;;0.40;;
26151;SDS011;13907;53.154;8.202;2022-12-29T06:35:37;0.43;;;0.43;;
26151;SDS011;13907;53.154;8.202;2022-12-29T06:38:04;0.50;;;0.50;;
26151;SDS011;13907;53.154;8.202;2022-12-29T06:40:31;0.60;;;0.60;;
26151;SDS011;13907;53.154;8.202;2022-12-29T06:43:00;0.50;;;0.50;;
26151;SDS011;13907;53.154;8.202;2022-12-29T06:45:27;0.50;;;0.50;;
26151;SDS011;13907;53.154;8.202;2022-12-29T06:47:54;0.53;;;0.53;;
26151;SDS011;13907;53.154;8.202;2022-12-29T06:50:21;4.13;;;0.77;;
26151;SDS011;13907;53.154;8.202;2022-12-29T06:52:48;0.50;;;0.50;;
26151;SDS011;13907;53.154;8.202;2022-12-29T06:55:15;0.63;;;0.63;;
26151;SDS011;13907;53.154;8.202;2022-12-29T06:57:42;0.70;;;0.70;;
26151;SDS011;13907;53.154;8.202;2022-12-29T07:00:11;0.50;;;0.50;;
26151;SDS011;13907;53.154;8.202;2022-12-29T07:02:39;1.73;;;1.03;;
26151;SDS011;13907;53.154;8.202;2022-12-29T07:05:06;0.70;;;0.70;;
26151;SDS011;13907;53.154;8.202;2022-12-29T07:07:34;0.50;;;0.50;;
26151;SDS011;13907;53.154;8.202;2022-12-29T07:10:01;2.43;;;0.90;;
26151;SDS011;13907;53.154;8.202;2022-12-29T07:12:28;1.30;;;0.63;;
26151;SDS011;13907;53.154;8.202;2022-12-29T07:14:55;0.60;;;0.60;;
26151;SDS011;13907;53.154;8.202;2022-12-29T07:17:24;0.60;;;0.60;;
26151;SDS011;13907;53.154;8.202;2022-12-29T07:19:51;0.40;;;0.40;;
26151;SDS011;13907;53.154;8.202;2022-12-29T07:22:18;0.50;;;0.50;;
26151;SDS011;13907;53.154;8.202;2022-12-29T07:24:45;0.67;;;0.67;;
26151;SDS011;13907;53.154;8.202;2022-12-29T07:27:12;0.60;;;0.60;;
26151;SDS011;13907;53.154;8.202;2022-12-29T07:29:39;0.50;;;0.50;;
26151;SDS011;13907;53.154;8.202;2022-12-29T07:32:07;2.00;;;0.97;;
26151;SDS011;13907;53.154;8.202;2022-12-29T07:34:36;0.50;;;0.50;;
26151;SDS011;13907;53.154;8.202;2022-12-29T07:37:04;0.80;;;0.80;;
26151;SDS011;13907;53.154;8.202;2022-12-29T07:39:31;0.60;;;0.60;;
26151;SDS011;13907;53.154;8.202;2022-12-29T07:41:58;0.40;;;0.40;;
26151;SDS011;13907;53.154;8.202;2022-12-29T07:44:25;0.63;;;0.63;;
26151;SDS011;13907;53.154;8.202;2022-12-29T07:46:53;1.07;;;0.70;;
26151;SDS011;13907;53.154;8.202;2022-12-29T07:49:20;5.20;;;0.70;;
26151;SDS011;13907;53.154;8.202;2022-12-29T07:51:48;0.50;;;0.50;;
26151;SDS011;13907;53.154;8.202;2022-12-29T07:54:15;1.17;;;0.90;;
26151;SDS011;13907;53.154;8.202;2022-12-29T07:56:43;0.70;;;0.70;;
26151;SDS011;13907;53.154;8.202;2022-12-29T07:59:10;1.80;;;0.80;;
26151;SDS011;13907;53.154;8.202;2022-12-29T08:01:38;3.37;;;1.03;;
26151;SDS011;13907;53.154;8.202;2022-12-29T08:04:05;0.93;;;0.60;;
26151;SDS011;13907;53.154;8.202;2022-12-29T08:06:32;1.37;;;0.47;;
26151;SDS011;13907;53.154;8.202;2022-12-29T08:09:01;0.50;;;0.50;;
26151;SDS011;13907;53.154;8.202;2022-12-29T08:11:28;0.70;;;0.70;;
26151;SDS011;13907;53.154;8.202;2022-12-29T08:13:55;0.57;;;0.57;;
26151;SDS011;13907;53.154;8.202;2022-12-29T08:16:22;2.27;;;0.70;;
26151;SDS011;13907;53.154;8.202;2022-12-29T08:18:49;1.87;;;1.37;;
26151;SDS011;13907;53.154;8.202;2022-12-29T08:21:16;3.03;;;0.80;;
26151;SDS011;13907;53.154;8.202;2022-12-29T08:23:43;1.27;;;0.60;;
26151;SDS011;13907;53.154;8.202;2022-12-29T08:26:12;0.40;;;0.40;;
26151;SDS011;13907;53.154;8.202;2022-12-29T08:28:39;2.53;;;0.60;;
26151;SDS011;13907;53.154;8.202;2022-12-29T08:31:06;0.67;;;0.50;;
26151;SDS011;13907;53.154;8.202;2022-12-29T08:33:33;0.90;;;0.73;;
26151;SDS011;13907;53.154;8.202;2022-12-29T08:36:00;4.30;;;0.90;;
26151;SDS011;13907;53.154;8.202;2022-12-29T08:38:28;1.20;;;0.70;;
26151;SDS011;13907;53.154;8.202;2022-12-29T08:40:55;3.70;;;0.70;;
26151;SDS011;13907;53.154;8.202;2022-12-29T08:43:23;0.83;;;0.70;;
26151;SDS011;13907;53.154;8.202;2022-12-29T08:45:51;3.53;;;0.87;;
26151;SDS011;13907;53.154;8.202;2022-12-29T08:48:18;0.87;;;0.87;;
26151;SDS011;13907;53.154;8.202;2022-12-29T08:50:47;1.43;;;1.33;;
26151;SDS011;13907;53.154;8.202;2022-12-29T08:53:14;1.13;;;0.50;;
26151;SDS011;13907;53.154;8.202;2022-12-29T08:55:44;1.17;;;0.90;;
26151;SDS011;13907;53.154;8.202;2022-12-29T08:58:11;6.93;;;0.80;;
26151;SDS011;13907;53.154;8.202;2022-12-29T09:00:41;4.07;;;0.90;;
26151;SDS011;13907;53.154;8.202;2022-12-29T09:03:08;0.60;;;0.60;;
26151;SDS011;13907;53.154;8.202;2022-12-29T09:05:36;2.27;;;0.80;;
26151;SDS011;13907;53.154;8.202;2022-12-29T09:08:03;1.00;;;0.87;;
26151;SDS011;13907;53.154;8.202;2022-12-29T09:10:30;3.17;;;1.10;;
26151;SDS011;13907;53.154;8.202;2022-12-29T09:12:57;0.53;;;0.53;;
26151;SDS011;13907;53.154;8.202;2022-12-29T09:15:24;4.33;;;1.07;;
26151;SDS011;13907;53.154;8.202;2022-12-29T09:17:53;0.50;;;0.50;;
26151;SDS011;13907;53.154;8.202;2022-12-29T09:20:20;1.13;;;0.70;;
26151;SDS011;13907;53.154;8.202;2022-12-29T09:22:47;1.13;;;0.87;;
26151;SDS011;13907;53.154;8.202;2022-12-29T09:25:15;0.87;;;0.87;;
26151;SDS011;13907;53.154;8.202;2022-12-29T09:27:42;0.70;;;0.37;;
26151;SDS011;13907;53.154;8.202;2022-12-29T09:30:10;1.40;;;0.80;;
26151;SDS011;13907;53.154;8.202;2022-12-29T09:32:39;4.43;;;0.90;;
26151;SDS011;13907;53.154;8.202;2022-12-29T09:35:08;0.70;;;0.70;;
26151;SDS011;13907;53.154;8.202;2022-12-29T09:37:35;4.53;;;1.30;;
26151;SDS011;13907;53.154;8.202;2022-12-29T09:40:02;0.50;;;0.50;;
26151;SDS011;13907;53.154;8.202;2022-12-29T09:42:31;0.83;;;0.80;;
26151;SDS011;13907;53.154;8.202;2022-12-29T09:45:03;0.87;;;0.70;;
26151;SDS011;13907;53.154;8.202;2022-12-29T09:47:31;0.50;;;0.47;;
26151;SDS011;13907;53.154;8.202;2022-12-29T09:49:59;0.93;;;0.70;;
26151;SDS011;13907;53.154;8.202;2022-12-29T09:52:30;1.57;;;1.00;;
26151;SDS011;13907;53.154;8.202;2022-12-29T09:54:59;2.43;;;1.27;;
26151;SDS011;13907;53.154;8.202;2022-12-29T09:57:29;1.33;;;0.50;;
26151;SDS011;13907;53.154;8.202;2022-12-29T09:59:59;2.00;;;0.70;;
26151;SDS011;13907;53.154;8.202;2022-12-29T10:02:31;0.93;;;0.87;;
26151;SDS011;13907;53.154;8.202;2022-12-29T10:04:59;1.73;;;0.80;;
26151;SDS011;13907;53.154;8.202;2022-12-29T10:07:30;0.63;;;0.40;;
26151;SDS011;13907;53.154;8.202;2022-12-29T10:10:02;0.53;;;0.53;;
26151;SDS011;13907;53.154;8.202;2022-12-29T10:12:31;1.83;;;0.60;;
26151;SDS011;13907;53.154;8.202;2022-12-29T10:15:04;0.60;;;0.60;;
26151;SDS011;13907;53.154;8.202;2022-12-29T10:17:39;0.50;;;0.50;;
26151;SDS011;13907;53.154;8.202;2022-12-29T10:20:16;2.30;;;0.90;;
26151;SDS011;13907;53.154;8.202;2022-12-29T10:22:50;0.93;;;0.50;;
26151;SDS011;13907;53.154;8.202;2022-12-29T10:25:20;0.50;;;0.50;;
26151;SDS011;13907;53.154;8.202;2022-12-29T10:27:48;0.80;;;0.80;;
26151;SDS011;13907;53.154;8.202;2022-12-29T10:30:17;1.53;;;1.23;;
26151;SDS011;13907;53.154;8.202;2022-12-29T10:32:45;3.30;;;0.70;;
26151;SDS011;13907;53.154;8.202;2022-12-29T10:35:16;0.63;;;0.63;;
26151;SDS011;13907;53.154;8.202;2022-12-29T10:37:45;0.53;;;0.53;;
26151;SDS011;13907;53.154;8.202;2022-12-29T10:40:16;2.80;;;1.27;;
26151;SDS011;13907;53.154;8.202;2022-12-29T10:42:46;2.47;;;0.60;;
26151;SDS011;13907;53.154;8.202;2022-12-29T10:45:16;0.57;;;0.57;;
26151;SDS011;13907;53.154;8.202;2022-12-29T10:47:47;0.50;;;0.50;;
26151;SDS011;13907;53.154;8.202;2022-12-29T10:50:17;1.37;;;0.80;;
26151;SDS011;13907;53.154;8.202;2022-12-29T10:52:45;0.90;;;0.90;;
26151;SDS011;13907;53.154;8.202;2022-12-29T10:55:14;0.40;;;0.40;;
26151;SDS011;13907;53.154;8.202;2022-12-29T10:57:44;1.03;;;0.87;;
26151;SDS011;13907;53.154;8.202;2022-12-29T11:00:12;8.37;;;1.33;;
26151;SDS011;13907;53.154;8.202;2022-12-29T11:02:47;1.87;;;1.00;;
26151;SDS011;13907;53.154;8.202;2022-12-29T11:05:18;0.50;;;0.50;;
26151;SDS011;13907;53.154;8.202;2022-12-29T11:07:46;1.23;;;0.77;;
26151;SDS011;13907;53.154;8.202;2022-12-29T11:10:15;0.93;;;0.60;;
26151;SDS011;13907;53.154;8.202;2022-12-29T11:12:45;0.70;;;0.60;;
26151;SDS011;13907;53.154;8.202;2022-12-29T11:15:21;0.63;;;0.63;;
26151;SDS011;13907;53.154;8.202;2022-12-29T11:17:49;0.50;;;0.50;;
26151;SDS011;13907;53.154;8.202;2022-12-29T11:20:27;0.77;;;0.60;;
26151;SDS011;13907;53.154;8.202;2022-12-29T11:22:54;5.30;;;0.70;;
26151;SDS011;13907;53.154;8.202;2022-12-29T11:25:21;1.90;;;0.60;;
26151;SDS011;13907;53.154;8.202;2022-12-29T11:27:55;1.80;;;0.60;;
26151;SDS011;13907;53.154;8.202;2022-12-29T11:30:23;1.60;;;0.50;;
26151;SDS011;13907;53.154;8.202;2022-12-29T11:32:51;0.53;;;0.50;;
26151;SDS011;13907;53.154;8.202;2022-12-29T11:35:29;3.47;;;0.60;;
26151;SDS011;13907;53.154;8.202;2022-12-29T11:37:57;1.10;;;0.60;;
26151;SDS011;13907;53.154;8.202;2022-12-29T11:40:25;1.83;;;0.70;;
26151;SDS011;13907;53.154;8.202;2022-12-29T11:42:53;0.50;;;0.50;;
26151;SDS011;13907;53.154;8.202;2022-12-29T11:45:24;0.60;;;0.60;;
26151;SDS011;13907;53.154;8.202;2022-12-29T11:47:52;1.03;;;0.80;;
26151;SDS011;13907;53.154;8.202;2022-12-29T11:50:20;0.40;;;0.40;;
26151;SDS011;13907;53.154;8.202;2022-12-29T11:52:48;0.63;;;0.50;;
26151;SDS011;13907;53.154;8.202;2022-12-29T11:55:17;0.73;;;0.73;;
26151;SDS011;13907;53.154;8.202;2022-12-29T11:57:45;2.27;;;0.93;;
26151;SDS011;13907;53.154;8.202;2022-12-29T12:00:16;2.53;;;0.83;;
26151;SDS011;13907;53.154;8.202;2022-12-29T12:02:46;2.70;;;0.60;;
26151;SDS011;13907;53.154;8.202;2022-12-29T12:05:18;0.40;;;0.40;;
26151;SDS011;13907;53.154;8.202;2022-12-29T12:07:47;1.17;;;0.83;;
26151;SDS011;13907;53.154;8.202;2022-12-29T12:10:19;3.40;;;0.80;;
26151;SDS011;13907;53.154;8.202;2022-12-29T12:12:48;1.33;;;0.70;;
26151;SDS011;13907;53.154;8.202;2022-12-29T12:15:20;0.87;;;0.77;;
26151;SDS011;13907;53.154;8.202;2022-12-29T12:17:51;1.50;;;0.57;;
26151;SDS011;13907;53.154;8.202;2022-12-29T12:20:19;1.37;;;0.63;;
26151;SDS011;13907;53.154;8.202;2022-12-29T12:22:51;1.70;;;1.10;;
26151;SDS011;13907;53.154;8.202;2022-12-29T12:25:20;3.77;;;0.67;;
26151;SDS011;13907;53.154;8.202;2022-12-29T12:27:49;0.50;;;0.50;;
26151;SDS011;13907;53.154;8.202;2022-12-29T12:30:18;0.50;;;0.50;;
26151;SDS011;13907;53.154;8.202;2022-12-29T12:32:46;2.40;;;0.87;;
26151;SDS011;13907;53.154;8.202;2022-12-29T12:35:19;0.70;;;0.30;;
26151;SDS011;13907;53.154;8.202;2022-12-29T12:37:51;0.83;;;0.80;;
26151;SDS011;13907;53.154;8.202;2022-12-29T12:40:40;0.30;;;0.30;;
26151;SDS011;13907;53.154;8.202;2022-12-29T12:43:15;0.60;;;0.60;;
26151;SDS011;13907;53.154;8.202;2022-12-29T12:45:47;0.50;;;0.50;;
26151;SDS011;13907;53.154;8.202;2022-12-29T12:48:20;0.40;;;0.40;;
26151;SDS011;13907;53.154;8.202;2022-12-29T12:50:54;0.70;;;0.70;;
26151;SDS011;13907;53.154;8.202;2022-12-29T12:53:26;1.27;;;0.60;;
26151;SDS011;13907;53.154;8.202;2022-12-29T12:56:03;3.40;;;0.70;;
26151;SDS011;13907;53.154;8.202;2022-12-29T12:58:36;2.30;;;1.00;;
26151;SDS011;13907;53.154;8.202;2022-12-29T13:01:10;0.70;;;0.70;;
26151;SDS011;13907;53.154;8.202;2022-12-29T13:03:44;2.60;;;0.73;;
26151;SDS011;13907;53.154;8.202;2022-12-29T13:06:18;0.60;;;0.60;;
26151;SDS011;13907;53.154;8.202;2022-12-29T13:09:01;0.47;;;0.47;;
26151;SDS011;13907;53.154;8.202;2022-12-29T13:11:34;2.00;;;0.83;;
26151;SDS011;13907;53.154;8.202;2022-12-29T13:14:08;1.23;;;0.60;;
26151;SDS011;13907;53.154;8.202;2022-12-29T13:16:39;0.60;;;0.60;;
26151;SDS011;13907;53.154;8.202;2022-12-29T13:19:09;0.40;;;0.40;;
26151;SDS011;13907;53.154;8.202;2022-12-29T13:21:51;3.17;;;0.40;;
26151;SDS011;13907;53.154;8.202;2022-12-29T13:24:23;0.77;;;0.53;;
26151;SDS011;13907;53.154;8.202;2022-12-29T13:26:53;0.93;;;0.93;;
26151;SDS011;13907;53.154;8.202;2022-12-29T13:29:22;3.97;;;0.90;;
26151;SDS011;13907;53.154;8.202;2022-12-29T13:31:52;10.43;;;4.03;;
26151;SDS011;13907;53.154;8.202;2022-12-29T13:34:24;4.50;;;2.00;;
26151;SDS011;13907;53.154;8.202;2022-12-29T13:36:54;3.07;;;1.60;;
26151;SDS011;13907;53.154;8.202;2022-12-29T13:39:22;2.00;;;1.00;;
26151;SDS011;13907;53.154;8.202;2022-12-29T13:41:50;1.23;;;1.13;;
26151;SDS011;13907;53.154;8.202;2022-12-29T13:44:19;1.07;;;0.90;;
26151;SDS011;13907;53.154;8.202;2022-12-29T13:46:49;1.63;;;1.07;;
26151;SDS011;13907;53.154;8.202;2022-12-29T13:49:17;5.57;;;1.00;;
26151;SDS011;13907;53.154;8.202;2022-12-29T13:51:46;4.47;;;1.03;;
26151;SDS011;13907;53.154;8.202;2022-12-29T13:54:18;5.50;;;1.00;;
26151;SDS011;13907;53.154;8.202;2022-12-29T13:56:51;4.40;;;1.10;;
26151;SDS011;13907;53.154;8.202;2022-12-29T13:59:20;1.53;;;1.40;;
26151;SDS011;13907;53.154;8.202;2022-12-29T14:01:50;1.57;;;1.00;;
26151;SDS011;13907;53.154;8.202;2022-12-29T14:04:21;4.57;;;1.30;;
26151;SDS011;13907;53.154;8.202;2022-12-29T14:06:57;1.23;;;0.80;;
26151;SDS011;13907;53.154;8.202;2022-12-29T14:12:35;3.33;;;1.17;;
26151;SDS011;13907;53.154;8.202;2022-12-29T14:15:04;2.90;;;0.70;;
26151;SDS011;13907;53.154;8.202;2022-12-29T14:17:32;1.10;;;1.10;;
26151;SDS011;13907;53.154;8.202;2022-12-29T14:19:59;1.10;;;0.70;;
26151;SDS011;13907;53.154;8.202;2022-12-29T14:22:26;1.43;;;0.80;;
26151;SDS011;13907;53.154;8.202;2022-12-29T14:24:54;0.80;;;0.80;;
26151;SDS011;13907;53.154;8.202;2022-12-29T14:30:07;1.90;;;1.10;;
26151;SDS011;13907;53.154;8.202;2022-12-29T14:33:01;1.30;;;0.87;;
26151;SDS011;13907;53.154;8.202;2022-12-29T14:35:37;2.67;;;0.97;;
26151;SDS011;13907;53.154;8.202;2022-12-29T14:38:14;1.13;;;1.13;;
26151;SDS011;13907;53.154;8.202;2022-12-29T14:40:42;9.27;;;3.03;;
26151;SDS011;13907;53.154;8.202;2022-12-29T14:43:13;2.00;;;1.80;;
26151;SDS011;13907;53.154;8.202;2022-12-29T14:45:47;1.90;;;1.03;;
26151;SDS011;13907;53.154;8.202;2022-12-29T14:48:29;2.00;;;1.37;;
26151;SDS011;13907;53.154;8.202;2022-12-29T14:50:57;4.07;;;2.97;;
26151;SDS011;13907;53.154;8.202;2022-12-29T14:53:43;1.30;;;1.20;;
26151;SDS011;13907;53.154;8.202;2022-12-29T14:56:11;1.80;;;1.47;;
26151;SDS011;13907;53.154;8.202;2022-12-29T14:58:42;8.93;;;2.67;;
26151;SDS011;13907;53.154;8.202;2022-12-29T15:01:20;1.43;;;1.27;;
26151;SDS011;13907;53.154;8.202;2022-12-29T15:03:48;5.07;;;2.43;;
26151;SDS011;13907;53.154;8.202;2022-12-29T15:06:15;2.27;;;2.17;;
26151;SDS011;13907;53.154;8.202;2022-12-29T15:08:48;2.33;;;1.50;;
26151;SDS011;13907;53.154;8.202;2022-12-29T15:11:17;5.03;;;0.90;;